Time;durP1;ratioP1;P1;durP2;ratioP2;P2;SDS_P1;SDS_P2;PMS_P1;PMS_P2;Temp;Humidity;BMP_temperature;BMP_pressure;BME280_temperature;BME280_humidity;BME280_pressure;Samples;Min_cycle;Max_cycle;Signal;HPM_P1;HPM_P2
2022/05/09 00:01:33;;;;;;;127.57;26.20;;;;;;;;;;4966060;28;20622;-48
2022/05/09 00:03:59;;;;;;;171.23;35.37;;;;;;;;;;4961877;28;20239;-49
2022/05/09 00:06:25;;;;;;;85.37;20.40;;;;;;;;;;4963285;28;20206;-48
2022/05/09 00:08:51;;;;;;;152.17;29.83;;;;;;;;;;4964878;28;20185;-48
2022/05/09 00:11:18;;;;;;;93.67;19.57;;;;;;;;;;4971681;28;20226;-48
2022/05/09 00:13:44;;;;;;;186.17;37.63;;;;;;;;;;4956204;28;20272;-48
2022/05/09 00:16:10;;;;;;;142.83;32.07;;;;;;;;;;4969929;28;20218;-48
2022/05/09 00:18:36;;;;;;;147.83;32.33;;;;;;;;;;4964475;28;20590;-48
2022/05/09 00:21:02;;;;;;;167.77;33.93;;;;;;;;;;4965173;28;20252;-48
2022/05/09 00:23:28;;;;;;;162.33;33.97;;;;;;;;;;4963400;28;20750;-48
2022/05/09 00:25:54;;;;;;;152.43;31.33;;;;;;;;;;4962775;28;20265;-48
2022/05/09 00:28:20;;;;;;;89.27;21.53;;;;;;;;;;4963886;28;20232;-48
2022/05/09 00:30:46;;;;;;;92.77;20.87;;;;;;;;;;4973147;28;20214;-48
2022/05/09 00:33:12;;;;;;;147.23;30.40;;;;;;;;;;4967541;28;20272;-48
2022/05/09 00:35:40;;;;;;;161.63;32.97;;;;;;;;;;4965766;28;20208;-48
2022/05/09 00:38:07;;;;;;;153.77;32.47;;;;;;;;;;4961986;28;20712;-48
2022/05/09 00:40:33;;;;;;;101.10;23.13;;;;;;;;;;4964515;28;20256;-48
2022/05/09 00:43:01;;;;;;;166.90;36.80;;;;;;;;;;4962535;28;20248;-48
2022/05/09 00:45:27;;;;;;;152.07;40.03;;;;;;;;;;4968808;28;20193;-48
2022/05/09 00:47:53;;;;;;;127.60;36.10;;;;;;;;;;4972899;28;20704;-48
2022/05/09 00:50:23;;;;;;;194.93;46.73;;;;;;;;;;4963252;28;20311;-48
2022/05/09 00:53:00;;;;;;;160.40;35.83;;;;;;;;;;4969259;28;20240;-48
2022/05/09 00:55:29;;;;;;;138.23;35.40;;;;;;;;;;4975708;28;20678;-48
2022/05/09 00:58:14;;;;;;;114.20;30.77;;;;;;;;;;4977098;28;20654;-48
2022/05/09 01:00:42;;;;;;;190.20;43.87;;;;;;;;;;4967523;28;20220;-48
2022/05/09 01:03:13;;;;;;;140.50;33.47;;;;;;;;;;4970438;28;20190;-48
2022/05/09 01:05:42;;;;;;;207.80;45.80;;;;;;;;;;4969562;28;20237;-48
2022/05/09 01:08:08;;;;;;;162.07;55.43;;;;;;;;;;4969042;28;20307;-48
2022/05/09 01:10:36;;;;;;;136.73;27.57;;;;;;;;;;4968500;28;20614;-48
2022/05/09 01:13:04;;;;;;;242.87;41.93;;;;;;;;;;4966728;28;20221;-48
2022/05/09 01:15:30;;;;;;;89.37;18.80;;;;;;;;;;4965254;28;20218;-48
2022/05/09 01:17:57;;;;;;;298.83;48.90;;;;;;;;;;4967776;28;20235;-48
2022/05/09 01:20:23;;;;;;;112.87;22.97;;;;;;;;;;4972962;28;20618;-48
2022/05/09 01:22:49;;;;;;;86.23;17.60;;;;;;;;;;4967793;28;20220;-48
2022/05/09 01:25:17;;;;;;;99.67;18.77;;;;;;;;;;4963545;28;20217;-47
2022/05/09 01:27:44;;;;;;;117.23;23.77;;;;;;;;;;4965939;28;20236;-47
2022/05/09 01:30:33;;;;;;;135.83;26.60;;;;;;;;;;4970450;28;20193;-47
2022/05/09 01:33:01;;;;;;;136.60;25.67;;;;;;;;;;4964906;28;21210;-48
2022/05/09 01:35:45;;;;;;;92.63;18.97;;;;;;;;;;4963714;28;20221;-47
2022/05/09 01:38:20;;;;;;;160.60;28.03;;;;;;;;;;4926536;28;1077629;-47
2022/05/09 01:40:46;;;;;;;108.60;22.03;;;;;;;;;;4963682;28;20221;-47
2022/05/09 01:43:13;;;;;;;126.57;24.40;;;;;;;;;;4968101;28;20213;-48
2022/05/09 01:45:38;;;;;;;162.60;30.37;;;;;;;;;;4963853;28;21367;-47
2022/05/09 01:50:49;;;;;;;82.43;17.60;;;;;;;;;;4974913;28;20228;-48
2022/05/09 01:53:15;;;;;;;108.93;21.63;;;;;;;;;;4967459;28;24467;-47
2022/05/09 01:55:41;;;;;;;60.93;15.00;;;;;;;;;;4970382;28;20684;-48
2022/05/09 01:58:07;;;;;;;126.80;24.70;;;;;;;;;;4974974;28;20540;-48
2022/05/09 02:00:33;;;;;;;96.73;20.13;;;;;;;;;;4973231;28;20587;-48
2022/05/09 02:03:00;;;;;;;126.47;24.07;;;;;;;;;;4958611;28;20197;-48
2022/05/09 02:05:26;;;;;;;110.83;22.17;;;;;;;;;;4967105;28;20900;-48
2022/05/09 02:07:53;;;;;;;109.37;22.53;;;;;;;;;;4965541;28;20221;-48
2022/05/09 02:10:19;;;;;;;91.87;20.63;;;;;;;;;;4978304;28;20288;-48
2022/05/09 02:12:45;;;;;;;107.57;21.93;;;;;;;;;;4964526;28;20222;-47
2022/05/09 02:15:11;;;;;;;108.57;22.17;;;;;;;;;;4965369;28;20193;-48
2022/05/09 02:17:37;;;;;;;104.20;21.47;;;;;;;;;;4969461;28;20229;-48
2022/05/09 02:20:04;;;;;;;102.17;21.13;;;;;;;;;;4965306;28;20887;-47
2022/05/09 02:22:30;;;;;;;132.50;25.87;;;;;;;;;;4969513;28;20229;-47
2022/05/09 02:24:56;;;;;;;124.63;23.27;;;;;;;;;;4971949;28;20214;-48
2022/05/09 02:27:23;;;;;;;91.73;19.40;;;;;;;;;;4968526;28;20220;-48
2022/05/09 02:29:49;;;;;;;203.60;35.53;;;;;;;;;;4966782;28;20581;-48
2022/05/09 02:32:16;;;;;;;189.33;33.47;;;;;;;;;;4974817;28;20238;-47
2022/05/09 02:34:42;;;;;;;177.73;32.67;;;;;;;;;;4962081;28;20240;-47
2022/05/09 02:37:08;;;;;;;104.80;20.80;;;;;;;;;;4972135;28;20221;-47
2022/05/09 02:39:34;;;;;;;59.83;15.27;;;;;;;;;;4971338;28;20230;-48
2022/05/09 02:42:00;;;;;;;189.00;34.27;;;;;;;;;;4968843;28;20217;-47
2022/05/09 02:44:27;;;;;;;111.03;22.07;;;;;;;;;;4963560;28;20225;-47
2022/05/09 02:46:53;;;;;;;222.20;39.00;;;;;;;;;;4966149;28;20655;-47
2022/05/09 02:49:19;;;;;;;112.43;22.83;;;;;;;;;;4964132;28;20213;-47
2022/05/09 02:51:48;;;;;;;236.23;41.20;;;;;;;;;;4957922;28;20324;-47
2022/05/09 02:54:14;;;;;;;136.40;26.33;;;;;;;;;;4967227;28;20236;-47
2022/05/09 02:56:40;;;;;;;60.53;14.90;;;;;;;;;;4973620;28;20205;-47
2022/05/09 02:59:06;;;;;;;129.53;25.53;;;;;;;;;;4965389;28;20569;-48
2022/05/09 03:01:32;;;;;;;122.90;24.17;;;;;;;;;;4974076;28;20221;-47
2022/05/09 03:06:43;;;;;;;130.93;24.67;;;;;;;;;;4963655;28;20644;-47
2022/05/09 03:09:09;;;;;;;132.10;24.67;;;;;;;;;;4962486;28;20201;-47
2022/05/09 03:11:35;;;;;;;86.00;18.03;;;;;;;;;;4970023;28;20245;-47
2022/05/09 03:14:01;;;;;;;136.53;25.53;;;;;;;;;;4964239;28;20308;-47
2022/05/09 03:16:27;;;;;;;104.67;21.77;;;;;;;;;;4964955;28;20225;-47
2022/05/09 03:18:53;;;;;;;166.63;29.93;;;;;;;;;;4964532;28;20214;-47
2022/05/09 03:21:19;;;;;;;103.10;21.07;;;;;;;;;;4959479;28;20229;-48
2022/05/09 03:23:45;;;;;;;100.90;20.03;;;;;;;;;;4964646;28;20247;-47
2022/05/09 03:26:11;;;;;;;54.33;12.50;;;;;;;;;;4962512;28;20285;-47
2022/05/09 03:28:37;;;;;;;96.10;19.53;;;;;;;;;;4967746;28;20224;-47
2022/05/09 03:31:04;;;;;;;157.27;28.67;;;;;;;;;;4961822;28;20324;-48
2022/05/09 03:33:30;;;;;;;74.97;16.97;;;;;;;;;;4972213;28;20246;-47
2022/05/09 03:35:59;;;;;;;103.23;19.77;;;;;;;;;;4969341;28;20273;-47
2022/05/09 03:38:25;;;;;;;46.33;12.73;;;;;;;;;;4969579;28;20281;-47
2022/05/09 03:40:51;;;;;;;108.10;20.97;;;;;;;;;;4965330;28;20228;-48
2022/05/09 03:43:17;;;;;;;91.20;18.70;;;;;;;;;;4965682;28;20668;-47
2022/05/09 03:45:44;;;;;;;143.97;28.90;;;;;;;;;;4963967;28;21318;-48
2022/05/09 03:48:10;;;;;;;146.33;32.80;;;;;;;;;;4959340;28;20220;-47
2022/05/09 03:50:36;;;;;;;95.83;23.47;;;;;;;;;;4965991;28;20364;-47
2022/05/09 03:53:02;;;;;;;123.03;29.97;;;;;;;;;;4968198;28;20646;-47
2022/05/09 03:55:28;;;;;;;79.17;22.03;;;;;;;;;;4985848;28;20217;-47
2022/05/09 03:57:55;;;;;;;161.03;40.30;;;;;;;;;;4976505;28;20221;-47
2022/05/09 04:00:24;;;;;;;203.30;47.97;;;;;;;;;;4971937;28;20423;-47
2022/05/09 04:02:50;;;;;;;134.23;31.40;;;;;;;;;;4968794;28;20677;-47
2022/05/09 04:05:17;;;;;;;97.80;25.97;;;;;;;;;;4975793;28;20244;-47
2022/05/09 04:07:46;;;;;;;104.90;32.20;;;;;;;;;;4979971;28;20222;-48
2022/05/09 04:10:13;;;;;;;99.57;32.93;;;;;;;;;;4982678;28;20210;-48
2022/05/09 04:12:40;;;;;;;161.70;52.77;;;;;;;;;;4973748;28;21078;-47
2022/05/09 04:17:51;;;;;;;89.47;27.67;;;;;;;;;;4974344;28;20264;-47
2022/05/09 04:20:17;;;;;;;103.03;19.00;;;;;;;;;;4963213;28;25844;-48
2022/05/09 04:22:42;;;;;;;115.33;20.17;;;;;;;;;;4960458;28;20229;-48
2022/05/09 04:25:09;;;;;;;122.20;21.20;;;;;;;;;;4958950;28;20324;-48
2022/05/09 04:27:36;;;;;;;124.13;21.20;;;;;;;;;;4962230;28;20837;-48
2022/05/09 04:30:01;;;;;;;136.20;23.67;;;;;;;;;;4965368;28;20657;-47
2022/05/09 04:32:27;;;;;;;169.47;27.60;;;;;;;;;;4952797;28;20229;-48
2022/05/09 04:34:53;;;;;;;125.13;21.33;;;;;;;;;;4963779;28;20228;-47
2022/05/09 04:37:19;;;;;;;84.10;15.50;;;;;;;;;;4961145;28;20217;-48
2022/05/09 04:39:45;;;;;;;101.67;18.23;;;;;;;;;;4966857;28;20627;-47
2022/05/09 04:42:12;;;;;;;173.67;28.07;;;;;;;;;;4964670;28;20220;-48
2022/05/09 04:44:38;;;;;;;135.40;23.83;;;;;;;;;;4964851;28;20213;-48
2022/05/09 04:47:04;;;;;;;100.13;19.03;;;;;;;;;;4968608;28;20760;-47
2022/05/09 04:49:30;;;;;;;94.20;18.00;;;;;;;;;;4960932;28;20226;-48
2022/05/09 04:51:56;;;;;;;168.47;29.07;;;;;;;;;;4958874;28;20551;-47
2022/05/09 04:54:22;;;;;;;143.67;24.87;;;;;;;;;;4954948;28;20254;-47
2022/05/09 04:56:48;;;;;;;84.43;16.93;;;;;;;;;;4966911;28;20694;-48
2022/05/09 04:59:14;;;;;;;111.00;19.57;;;;;;;;;;4968274;28;20222;-47
2022/05/09 05:01:40;;;;;;;124.87;21.43;;;;;;;;;;4961288;28;20291;-47
2022/05/09 05:04:07;;;;;;;128.33;22.23;;;;;;;;;;4966213;28;20308;-48
2022/05/09 05:06:33;;;;;;;92.87;17.63;;;;;;;;;;4960217;28;20235;-47
2022/05/09 05:08:59;;;;;;;86.47;16.67;;;;;;;;;;4970382;28;20189;-47
2022/05/09 05:11:25;;;;;;;133.63;23.63;;;;;;;;;;4969851;28;20269;-48
2022/05/09 05:13:51;;;;;;;138.47;23.37;;;;;;;;;;4963433;28;20307;-47
2022/05/09 05:16:17;;;;;;;146.90;24.70;;;;;;;;;;4958614;28;20221;-47
2022/05/09 05:18:44;;;;;;;66.37;13.37;;;;;;;;;;4971492;28;20232;-47
2022/05/09 05:21:11;;;;;;;91.60;16.30;;;;;;;;;;4971926;28;20796;-48
2022/05/09 05:23:38;;;;;;;74.97;14.73;;;;;;;;;;4965120;28;20665;-48
2022/05/09 05:26:04;;;;;;;140.87;23.63;;;;;;;;;;4960603;28;20235;-47
2022/05/09 05:28:32;;;;;;;65.60;14.10;;;;;;;;;;4976752;28;20233;-47
2022/05/09 05:31:10;;;;;;;105.40;18.93;;;;;;;;;;4967726;28;23426;-48
2022/05/09 05:33:36;;;;;;;106.33;17.57;;;;;;;;;;4972899;28;20331;-48
2022/05/09 05:36:02;;;;;;;132.47;22.60;;;;;;;;;;4966281;28;20947;-48
2022/05/09 05:38:28;;;;;;;69.03;13.87;;;;;;;;;;4963855;28;20237;-48
2022/05/09 05:40:57;;;;;;;120.67;21.03;;;;;;;;;;4967158;28;20789;-48
2022/05/09 05:43:23;;;;;;;121.40;20.40;;;;;;;;;;4954397;28;20305;-48
2022/05/09 05:45:54;;;;;;;80.93;15.37;;;;;;;;;;4949603;28;20210;-48
2022/05/09 05:48:20;;;;;;;121.47;22.23;;;;;;;;;;4941061;28;20185;-48
2022/05/09 05:50:46;;;;;;;100.30;18.80;;;;;;;;;;4971601;28;20178;-48
2022/05/09 05:53:11;;;;;;;116.00;21.10;;;;;;;;;;4969002;28;20233;-48
2022/05/09 05:55:37;;;;;;;150.40;25.00;;;;;;;;;;4960756;28;20269;-48
2022/05/09 05:58:03;;;;;;;169.67;26.93;;;;;;;;;;4960172;28;20233;-48
2022/05/09 06:00:30;;;;;;;116.20;20.17;;;;;;;;;;4957296;28;20320;-48
2022/05/09 06:02:56;;;;;;;171.27;27.40;;;;;;;;;;4951485;28;20205;-48
2022/05/09 06:05:22;;;;;;;43.47;9.30;;;;;;;;;;4970404;28;20282;-48
2022/05/09 06:07:49;;;;;;;154.17;23.90;;;;;;;;;;4973907;28;20213;-47
2022/05/09 06:10:15;;;;;;;109.60;20.17;;;;;;;;;;4968267;28;20218;-48
2022/05/09 06:12:41;;;;;;;96.63;19.73;;;;;;;;;;4970246;28;20507;-47
2022/05/09 06:17:54;;;;;;;81.00;17.03;;;;;;;;;;4974493;28;20224;-47
2022/05/09 06:20:20;;;;;;;108.30;20.47;;;;;;;;;;4976194;28;20246;-47
2022/05/09 06:22:46;;;;;;;80.40;15.70;;;;;;;;;;4975820;28;20221;-47
2022/05/09 06:25:14;;;;;;;96.73;19.03;;;;;;;;;;4975056;28;20224;-48
2022/05/09 06:27:41;;;;;;;83.47;16.60;;;;;;;;;;4975748;28;20269;-48
2022/05/09 06:30:08;;;;;;;71.67;15.33;;;;;;;;;;4978726;28;20204;-48
2022/05/09 06:32:34;;;;;;;63.87;14.13;;;;;;;;;;4971367;28;20393;-47
2022/05/09 06:35:00;;;;;;;110.30;20.63;;;;;;;;;;4974781;28;20689;-47
2022/05/09 06:37:28;;;;;;;140.13;24.47;;;;;;;;;;4966752;28;20666;-48
2022/05/09 06:39:54;;;;;;;104.40;18.67;;;;;;;;;;4954014;28;20225;-48
2022/05/09 06:42:20;;;;;;;95.80;17.73;;;;;;;;;;4962655;28;20229;-48
2022/05/09 06:44:46;;;;;;;105.37;19.20;;;;;;;;;;4966557;28;20219;-48
2022/05/09 06:47:13;;;;;;;62.47;13.73;;;;;;;;;;4961712;28;20698;-47
2022/05/09 06:49:39;;;;;;;82.77;16.67;;;;;;;;;;4972424;28;20213;-47
2022/05/09 06:52:05;;;;;;;308.87;55.40;;;;;;;;;;4971942;28;20231;-48
2022/05/09 06:54:31;;;;;;;59.90;13.57;;;;;;;;;;4972693;28;20201;-47
2022/05/09 06:56:57;;;;;;;141.07;25.53;;;;;;;;;;4966938;28;20197;-48
2022/05/09 06:59:23;;;;;;;69.47;14.27;;;;;;;;;;4973469;28;20210;-48
2022/05/09 07:01:50;;;;;;;166.57;27.87;;;;;;;;;;4973030;28;20232;-48
2022/05/09 07:04:16;;;;;;;69.40;14.53;;;;;;;;;;4964060;28;20768;-48
2022/05/09 07:06:42;;;;;;;57.00;13.00;;;;;;;;;;4967499;28;20222;-48
2022/05/09 07:09:12;;;;;;;76.37;15.93;;;;;;;;;;4963767;28;20268;-48
2022/05/09 07:11:39;;;;;;;114.40;20.73;;;;;;;;;;4972588;28;20248;-48
2022/05/09 07:14:06;;;;;;;119.45;20.63;;;;;;;;;;4973917;28;20308;-48
2022/05/09 07:16:32;;;;;;;58.13;13.02;;;;;;;;;;4975011;28;20233;-48
2022/05/09 07:18:58;;;;;;;70.00;14.07;;;;;;;;;;4973538;28;20308;-48
2022/05/09 07:21:25;;;;;;;64.37;13.77;;;;;;;;;;4970358;28;20221;-48
2022/05/09 07:23:50;;;;;;;133.73;23.77;;;;;;;;;;4958910;28;20185;-48
2022/05/09 07:26:17;;;;;;;97.47;18.52;;;;;;;;;;4959207;28;20225;-48
2022/05/09 07:28:42;;;;;;;50.10;11.43;;;;;;;;;;4956529;28;20715;-49
2022/05/09 07:31:09;;;;;;;82.68;16.20;;;;;;;;;;4982729;28;20254;-48
2022/05/09 07:33:36;;;;;;;108.33;19.87;;;;;;;;;;4977150;28;20381;-48
2022/05/09 07:36:02;;;;;;;68.77;13.93;;;;;;;;;;4977174;28;20220;-48
2022/05/09 07:38:28;;;;;;;74.45;14.60;;;;;;;;;;4975981;28;20232;-48
2022/05/09 07:40:54;;;;;;;67.47;13.50;;;;;;;;;;4977927;28;20294;-49
2022/05/09 07:43:23;;;;;;;125.28;22.48;;;;;;;;;;4977549;28;20214;-48
2022/05/09 07:45:51;;;;;;;116.03;21.00;;;;;;;;;;4971102;28;20225;-48
2022/05/09 07:48:19;;;;;;;52.90;12.30;;;;;;;;;;4976070;28;20182;-48
2022/05/09 07:50:45;;;;;;;61.07;13.47;;;;;;;;;;4981582;28;20251;-48
2022/05/09 07:53:13;;;;;;;157.68;27.35;;;;;;;;;;4976192;28;20783;-48
2022/05/09 07:55:39;;;;;;;145.07;25.70;;;;;;;;;;4977838;28;20221;-48
2022/05/09 07:58:05;;;;;;;97.75;18.40;;;;;;;;;;4971652;28;23061;-48
2022/05/09 08:00:31;;;;;;;133.67;23.87;;;;;;;;;;4972333;28;20371;-48
2022/05/09 08:02:57;;;;;;;87.80;16.67;;;;;;;;;;4969843;28;20185;-48
2022/05/09 08:05:23;;;;;;;70.53;14.88;;;;;;;;;;4976507;28;20655;-49
2022/05/09 08:07:49;;;;;;;76.25;16.55;;;;;;;;;;4979209;28;20221;-49
2022/05/09 08:10:16;;;;;;;67.40;14.90;;;;;;;;;;4983103;28;20221;-49
2022/05/09 08:12:42;;;;;;;50.92;12.13;;;;;;;;;;4973812;28;20261;-48
2022/05/09 08:15:09;;;;;;;68.40;15.18;;;;;;;;;;4980422;28;20570;-48
2022/05/09 08:17:35;;;;;;;106.40;20.38;;;;;;;;;;4977881;28;20666;-49
2022/05/09 08:20:01;;;;;;;96.97;18.67;;;;;;;;;;4977816;28;20205;-48
2022/05/09 08:22:31;;;;;;;113.47;22.40;;;;;;;;;;4974616;28;20225;-49
2022/05/09 08:24:58;;;;;;;90.95;18.60;;;;;;;;;;4976268;28;20232;-48
2022/05/09 08:27:24;;;;;;;88.53;18.13;;;;;;;;;;4978978;28;20205;-48
2022/05/09 08:29:54;;;;;;;95.18;19.23;;;;;;;;;;4977919;28;20641;-48
2022/05/09 08:32:20;;;;;;;56.00;13.18;;;;;;;;;;4978068;28;20293;-48
2022/05/09 08:34:46;;;;;;;70.03;14.82;;;;;;;;;;4981033;28;21009;-48
2022/05/09 08:37:14;;;;;;;75.07;15.88;;;;;;;;;;4979322;28;20221;-48
2022/05/09 08:39:40;;;;;;;77.78;15.85;;;;;;;;;;4979529;28;20233;-48
2022/05/09 08:42:08;;;;;;;135.65;25.15;;;;;;;;;;4976952;28;20331;-48
2022/05/09 08:44:37;;;;;;;55.35;13.02;;;;;;;;;;4979445;28;20240;-48
2022/05/09 08:47:08;;;;;;;23.83;7.90;;;;;;;;;;4981055;28;20221;-48
2022/05/09 08:49:53;;;;;;;94.65;19.30;;;;;;;;;;4969344;28;20607;-48
2022/05/09 08:52:34;;;;;;;52.15;12.18;;;;;;;;;;4978391;28;20293;-48
2022/05/09 08:55:00;;;;;;;90.38;18.42;;;;;;;;;;4981076;28;20240;-48
2022/05/09 08:57:29;;;;;;;47.08;11.95;;;;;;;;;;4983046;28;20655;-49
2022/05/09 09:00:01;;;;;;;141.27;25.60;;;;;;;;;;4981679;28;20419;-48
2022/05/09 09:02:37;;;;;;;65.50;14.80;;;;;;;;;;4985145;28;20579;-48
2022/05/09 09:05:03;;;;;;;64.78;14.65;;;;;;;;;;4987732;28;20368;-49
2022/05/09 09:07:36;;;;;;;60.20;13.85;;;;;;;;;;4982813;28;20225;-48
2022/05/09 09:10:15;;;;;;;84.78;17.92;;;;;;;;;;4988091;28;20216;-48
2022/05/09 09:12:47;;;;;;;97.25;19.08;;;;;;;;;;4980804;28;20678;-49
2022/05/09 09:15:32;;;;;;;47.22;11.70;;;;;;;;;;4981252;28;20241;-48
2022/05/09 09:18:21;;;;;;;82.97;18.10;;;;;;;;;;4982579;28;20201;-48
2022/05/09 09:21:01;;;;;;;64.20;15.68;;;;;;;;;;4983988;28;20237;-48
2022/05/09 09:23:33;;;;;;;93.05;20.50;;;;;;;;;;4987178;28;20260;-49
2022/05/09 09:26:03;;;;;;;63.08;15.50;;;;;;;;;;4985745;28;20730;-48
2022/05/09 09:28:36;;;;;;;113.32;24.70;;;;;;;;;;4971221;28;20620;-49
2022/05/09 09:31:04;;;;;;;137.43;27.92;;;;;;;;;;4978735;28;21722;-48
2022/05/09 09:33:29;;;;;;;103.57;23.00;;;;;;;;;;4971617;28;20534;-48
2022/05/09 09:36:04;;;;;;;113.50;24.27;;;;;;;;;;4970926;28;20178;-48
2022/05/09 09:38:39;;;;;;;61.78;15.82;;;;;;;;;;4974910;28;20209;-48
2022/05/09 09:41:27;;;;;;;70.07;17.13;;;;;;;;;;4976101;28;20225;-48
2022/05/09 09:43:58;;;;;;;75.25;17.75;;;;;;;;;;4982380;28;20205;-48
2022/05/09 09:46:24;;;;;;;114.45;24.58;;;;;;;;;;4978561;28;20209;-48
2022/05/09 09:49:09;;;;;;;84.30;19.05;;;;;;;;;;4973667;28;20745;-48
2022/05/09 09:51:49;;;;;;;63.85;15.80;;;;;;;;;;4976181;28;20213;-48
2022/05/09 09:54:20;;;;;;;53.92;14.70;;;;;;;;;;4971003;28;20589;-48
2022/05/09 09:56:46;;;;;;;90.78;20.80;;;;;;;;;;4982191;28;20202;-49
2022/05/09 09:59:12;;;;;;;119.38;26.55;;;;;;;;;;4973745;28;20220;-49
2022/05/09 10:01:38;;;;;;;96.03;22.23;;;;;;;;;;4975576;28;20243;-48
2022/05/09 10:04:09;;;;;;;109.97;24.60;;;;;;;;;;4972903;28;20269;-48
2022/05/09 10:06:35;;;;;;;60.40;15.57;;;;;;;;;;4983415;28;20766;-49
2022/05/09 10:09:09;;;;;;;96.70;22.42;;;;;;;;;;4978045;28;20185;-48
2022/05/09 10:11:35;;;;;;;66.93;17.00;;;;;;;;;;4980344;28;20259;-48
2022/05/09 10:14:02;;;;;;;88.18;21.42;;;;;;;;;;4973952;28;20220;-48
2022/05/09 10:16:33;;;;;;;44.80;13.07;;;;;;;;;;4976093;28;20241;-49
2022/05/09 10:19:04;;;;;;;97.15;23.58;;;;;;;;;;4975555;28;20593;-48
2022/05/09 10:27:22;;;;;;;81.22;20.90;;;;;;;;;;4978099;28;20276;-48
2022/05/09 10:30:09;;;;;;;141.82;32.80;;;;;;;;;;4979273;28;20297;-48
2022/05/09 10:32:42;;;;;;;93.63;23.75;;;;;;;;;;4970643;28;20217;-49
2022/05/09 10:35:13;;;;;;;86.90;24.45;;;;;;;;;;4982194;28;20251;-49
2022/05/09 10:37:40;;;;;;;70.00;22.15;;;;;;;;;;4981029;28;20316;-49
2022/05/09 10:40:09;;;;;;;86.25;25.90;;;;;;;;;;4982534;28;20247;-49
2022/05/09 10:42:39;;;;;;;130.32;36.05;;;;;;;;;;4969183;28;20287;-48
2022/05/09 10:45:09;;;;;;;170.32;48.88;;;;;;;;;;4969682;28;20240;-49
2022/05/09 10:47:41;;;;;;;70.68;25.10;;;;;;;;;;4979585;28;20250;-48
2022/05/09 10:50:36;;;;;;;155.60;48.85;;;;;;;;;;4970108;28;21222;-49
2022/05/09 10:53:15;;;;;;;101.45;32.38;;;;;;;;;;4944994;28;20370;-48
2022/05/09 10:55:41;;;;;;;71.10;25.65;;;;;;;;;;4977450;28;20213;-49
2022/05/09 10:58:07;;;;;;;105.50;34.20;;;;;;;;;;4977052;28;20320;-49
2022/05/09 11:00:34;;;;;;;109.43;39.55;;;;;;;;;;4971526;28;20416;-49
2022/05/09 11:03:03;;;;;;;180.38;88.20;;;;;;;;;;4973545;28;20194;-49
2022/05/09 11:05:34;;;;;;;158.88;88.55;;;;;;;;;;4968942;28;20234;-49
2022/05/09 11:08:18;;;;;;;142.20;85.53;;;;;;;;;;4968939;28;20634;-48
2022/05/09 11:10:48;;;;;;;134.95;81.82;;;;;;;;;;4982009;28;20217;-49
2022/05/09 11:13:25;;;;;;;118.63;76.47;;;;;;;;;;4976399;28;20240;-49
2022/05/09 11:16:00;;;;;;;154.50;94.57;;;;;;;;;;4972932;28;20364;-49
2022/05/09 11:18:31;;;;;;;115.57;81.75;;;;;;;;;;4967387;28;20286;-49
2022/05/09 11:21:08;;;;;;;265.13;162.30;;;;;;;;;;4974373;28;20264;-49
2022/05/09 11:23:36;;;;;;;438.15;238.40;;;;;;;;;;4956769;28;20964;-49
2022/05/09 11:26:22;;;;;;;258.05;179.02;;;;;;;;;;4967234;28;20299;-49
2022/05/09 11:28:55;;;;;;;273.75;186.20;;;;;;;;;;4977097;28;20659;-49
2022/05/09 11:31:28;;;;;;;223.80;165.85;;;;;;;;;;4977168;28;20356;-49
2022/05/09 11:34:00;;;;;;;240.90;170.75;;;;;;;;;;4983545;28;20586;-49
2022/05/09 11:36:32;;;;;;;262.05;180.98;;;;;;;;;;4982573;28;20205;-49
2022/05/09 11:39:03;;;;;;;276.15;184.25;;;;;;;;;;4984043;28;20254;-49
2022/05/09 11:41:29;;;;;;;276.60;192.38;;;;;;;;;;4971594;28;20713;-49
2022/05/09 11:44:12;;;;;;;308.02;206.35;;;;;;;;;;4981173;28;20300;-49
2022/05/09 11:46:47;;;;;;;320.88;208.85;;;;;;;;;;4982063;28;20534;-49
2022/05/09 11:49:32;;;;;;;296.15;199.07;;;;;;;;;;4980685;28;20220;-49
2022/05/09 11:52:06;;;;;;;369.60;242.85;;;;;;;;;;4983710;28;20244;-49
2022/05/09 11:54:40;;;;;;;283.60;196.63;;;;;;;;;;4978061;28;20333;-49
2022/05/09 11:57:07;;;;;;;318.75;212.13;;;;;;;;;;4981569;28;20239;-49
2022/05/09 11:59:34;;;;;;;345.40;224.10;;;;;;;;;;4978105;28;20268;-49
2022/05/09 12:02:03;;;;;;;349.30;223.63;;;;;;;;;;4984357;28;20303;-49
2022/05/09 12:04:33;;;;;;;335.20;221.45;;;;;;;;;;4983037;28;20206;-49
2022/05/09 12:06:59;;;;;;;335.83;223.15;;;;;;;;;;4983138;28;20407;-49
2022/05/09 12:09:44;;;;;;;308.27;214.90;;;;;;;;;;4987106;28;20384;-49
2022/05/09 12:12:30;;;;;;;307.75;214.05;;;;;;;;;;4972897;28;20827;-49
2022/05/09 12:14:56;;;;;;;286.52;200.00;;;;;;;;;;4981654;28;20670;-49
2022/05/09 12:17:32;;;;;;;307.35;214.50;;;;;;;;;;4983002;28;20193;-49
2022/05/09 12:19:58;;;;;;;331.33;226.57;;;;;;;;;;4970240;28;20520;-49
2022/05/09 12:22:24;;;;;;;331.40;227.38;;;;;;;;;;4975330;28;20710;-49
2022/05/09 12:24:50;;;;;;;286.20;207.52;;;;;;;;;;4976074;28;20229;-49
2022/05/09 12:27:34;;;;;;;337.10;238.20;;;;;;;;;;4973203;28;20243;-49
2022/05/09 12:30:00;;;;;;;344.13;236.50;;;;;;;;;;4967251;28;20639;-49
2022/05/09 12:32:26;;;;;;;317.25;222.10;;;;;;;;;;4978301;28;20602;-49
2022/05/09 12:34:52;;;;;;;331.75;234.00;;;;;;;;;;4974602;28;20233;-49
2022/05/09 12:37:22;;;;;;;336.10;235.25;;;;;;;;;;4972922;28;20305;-49
2022/05/09 12:39:50;;;;;;;364.00;252.60;;;;;;;;;;4965999;28;20430;-49
2022/05/09 12:42:34;;;;;;;285.85;212.27;;;;;;;;;;4969588;28;20280;-49
2022/05/09 12:45:02;;;;;;;358.10;248.73;;;;;;;;;;4982606;28;21001;-49
2022/05/09 12:47:31;;;;;;;334.27;239.35;;;;;;;;;;4970531;28;20213;-50
2022/05/09 12:49:59;;;;;;;312.38;233.27;;;;;;;;;;4984278;28;20217;-49
2022/05/09 12:52:30;;;;;;;261.33;218.18;;;;;;;;;;4981597;28;20928;-49
2022/05/09 12:57:42;;;;;;;291.48;217.65;;;;;;;;;;4976586;28;20228;-49
2022/05/09 13:00:08;;;;;;;462.10;306.77;;;;;;;;;;4976552;28;20633;-50
2022/05/09 13:02:34;;;;;;;300.13;231.05;;;;;;;;;;4979504;28;20209;-48
2022/05/09 13:05:00;;;;;;;299.75;233.68;;;;;;;;;;4987818;28;20737;-48
2022/05/09 13:07:27;;;;;;;277.98;215.80;;;;;;;;;;4981024;28;20251;-48
2022/05/09 13:09:54;;;;;;;335.40;244.25;;;;;;;;;;4987354;28;20955;-50
2022/05/09 13:12:29;;;;;;;253.93;206.30;;;;;;;;;;4986584;28;20209;-49
2022/05/09 13:15:04;;;;;;;282.20;222.32;;;;;;;;;;4992736;28;20212;-50
2022/05/09 13:17:50;;;;;;;287.52;229.32;;;;;;;;;;4985557;28;20248;-49
2022/05/09 13:20:18;;;;;;;306.70;243.77;;;;;;;;;;4988777;28;20235;-49
2022/05/09 13:22:50;;;;;;;323.27;261.92;;;;;;;;;;4983002;28;20229;-49
2022/05/09 13:25:17;;;;;;;333.10;267.15;;;;;;;;;;4986185;28;20228;-49
2022/05/09 13:27:48;;;;;;;309.88;249.88;;;;;;;;;;4984840;28;20218;-50
2022/05/09 13:30:14;;;;;;;336.00;272.38;;;;;;;;;;4985299;28;20757;-49
2022/05/09 13:32:40;;;;;;;358.60;285.00;;;;;;;;;;4986439;28;20263;-49
2022/05/09 13:35:20;;;;;;;388.35;279.55;;;;;;;;;;4989134;28;20280;-49
2022/05/09 13:37:49;;;;;;;359.15;265.30;;;;;;;;;;4978980;28;20240;-51
2022/05/09 13:40:16;;;;;;;398.45;277.83;;;;;;;;;;4986676;28;20514;-49
2022/05/09 13:42:43;;;;;;;415.90;283.33;;;;;;;;;;4984826;28;20264;-50
2022/05/09 13:45:20;;;;;;;422.48;286.50;;;;;;;;;;4986810;28;22175;-49
2022/05/09 13:47:50;;;;;;;386.75;275.92;;;;;;;;;;4982783;28;20205;-49
2022/05/09 13:50:16;;;;;;;416.27;286.48;;;;;;;;;;4987412;28;20277;-50
2022/05/09 13:52:46;;;;;;;349.33;285.63;;;;;;;;;;4980606;28;20307;-49
2022/05/09 13:55:14;;;;;;;508.05;361.45;;;;;;;;;;4979038;28;20244;-49
2022/05/09 13:57:41;;;;;;;402.92;285.38;;;;;;;;;;4986509;28;20236;-51
2022/05/09 14:00:09;;;;;;;386.98;292.13;;;;;;;;;;4980066;28;20221;-49
2022/05/09 14:02:36;;;;;;;348.13;297.23;;;;;;;;;;4986108;28;20217;-49
2022/05/09 14:05:04;;;;;;;375.85;290.98;;;;;;;;;;4985682;28;21778;-49
2022/05/09 14:07:38;;;;;;;484.63;346.98;;;;;;;;;;4967914;28;22464;-50
2022/05/09 14:10:11;;;;;;;408.60;305.92;;;;;;;;;;4967496;28;20213;-50
2022/05/09 14:12:37;;;;;;;422.08;319.65;;;;;;;;;;4978196;28;20235;-51
2022/05/09 14:15:03;;;;;;;426.80;316.30;;;;;;;;;;4973384;28;20335;-51
2022/05/09 14:17:34;;;;;;;471.42;352.42;;;;;;;;;;4966172;28;20656;-50
2022/05/09 14:20:02;;;;;;;426.42;322.80;;;;;;;;;;4975707;28;20198;-50
2022/05/09 14:22:29;;;;;;;410.83;317.45;;;;;;;;;;4978331;28;20307;-50
2022/05/09 14:30:34;;;;;;;380.67;331.45;;;;;;;;;;4978620;28;20522;-50
2022/05/09 14:33:00;;;;;;;400.60;333.52;;;;;;;;;;4975714;28;20296;-50
2022/05/09 14:35:41;;;;;;;407.25;362.95;;;;;;;;;;4984040;28;20557;-50
2022/05/09 14:38:24;;;;;;;417.90;373.08;;;;;;;;;;4973734;28;20768;-50
2022/05/09 14:40:50;;;;;;;411.13;370.60;;;;;;;;;;4982910;28;20308;-51